sensor_id;sensor_type;location;lat;lon;timestamp;P1;durP1;ratioP1;P2;durP2;ratioP2
33150;SDS011;19508;42.578;23.416;2022-12-11T00:01:33;15.55;;;8.43;;
33150;SDS011;19508;42.578;23.416;2022-12-11T00:03:59;12.15;;;7.22;;
33150;SDS011;19508;42.578;23.416;2022-12-11T00:06:24;15.10;;;6.95;;
33150;SDS011;19508;42.578;23.416;2022-12-11T00:08:50;18.73;;;7.57;;
33150;SDS011;19508;42.578;23.416;2022-12-11T00:11:18;21.52;;;8.13;;
33150;SDS011;19508;42.578;23.416;2022-12-11T00:13:44;16.40;;;7.07;;
33150;SDS011;19508;42.578;23.416;2022-12-11T00:16:09;23.95;;;9.20;;
33150;SDS011;19508;42.578;23.416;2022-12-11T00:18:35;21.98;;;9.60;;
33150;SDS011;19508;42.578;23.416;2022-12-11T00:21:04;17.88;;;9.43;;
33150;SDS011;19508;42.578;23.416;2022-12-11T00:23:31;18.77;;;7.85;;
33150;SDS011;19508;42.578;23.416;2022-12-11T00:25:59;23.00;;;8.65;;
33150;SDS011;19508;42.578;23.416;2022-12-11T00:28:24;14.60;;;7.53;;
33150;SDS011;19508;42.578;23.416;2022-12-11T00:30:50;21.25;;;9.95;;
33150;SDS011;19508;42.578;23.416;2022-12-11T00:33:15;27.50;;;9.43;;
33150;SDS011;19508;42.578;23.416;2022-12-11T00:35:42;27.20;;;10.98;;
33150;SDS011;19508;42.578;23.416;2022-12-11T00:38:16;22.20;;;11.10;;
33150;SDS011;19508;42.578;23.416;2022-12-11T00:40:45;29.48;;;10.85;;
33150;SDS011;19508;42.578;23.416;2022-12-11T00:43:10;17.67;;;8.65;;
33150;SDS011;19508;42.578;23.416;2022-12-11T00:45:37;20.95;;;8.43;;
33150;SDS011;19508;42.578;23.416;2022-12-11T00:48:04;19.33;;;8.05;;
33150;SDS011;19508;42.578;23.416;2022-12-11T00:50:30;14.93;;;7.60;;
33150;SDS011;19508;42.578;23.416;2022-12-11T00:52:56;18.00;;;7.88;;
33150;SDS011;19508;42.578;23.416;2022-12-11T00:55:21;28.90;;;10.02;;
33150;SDS011;19508;42.578;23.416;2022-12-11T00:57:46;17.23;;;9.02;;
33150;SDS011;19508;42.578;23.416;2022-12-11T01:00:15;33.15;;;14.13;;
33150;SDS011;19508;42.578;23.416;2022-12-11T01:02:40;15.80;;;7.43;;
33150;SDS011;19508;42.578;23.416;2022-12-11T01:05:06;19.55;;;6.90;;
33150;SDS011;19508;42.578;23.416;2022-12-11T01:07:33;18.88;;;7.35;;
33150;SDS011;19508;42.578;23.416;2022-12-11T01:09:58;18.90;;;8.82;;
33150;SDS011;19508;42.578;23.416;2022-12-11T01:12:42;27.00;;;9.70;;
33150;SDS011;19508;42.578;23.416;2022-12-11T01:15:08;26.35;;;12.70;;
33150;SDS011;19508;42.578;23.416;2022-12-11T01:17:33;36.88;;;12.98;;
33150;SDS011;19508;42.578;23.416;2022-12-11T01:19:59;36.20;;;16.00;;
33150;SDS011;19508;42.578;23.416;2022-12-11T01:22:24;45.03;;;17.27;;
33150;SDS011;19508;42.578;23.416;2022-12-11T01:24:49;34.50;;;13.32;;
33150;SDS011;19508;42.578;23.416;2022-12-11T01:27:15;25.98;;;12.60;;
33150;SDS011;19508;42.578;23.416;2022-12-11T01:29:40;36.17;;;12.32;;
33150;SDS011;19508;42.578;23.416;2022-12-11T01:32:05;28.65;;;12.32;;
33150;SDS011;19508;42.578;23.416;2022-12-11T01:34:31;28.52;;;11.90;;
33150;SDS011;19508;42.578;23.416;2022-12-11T01:36:57;35.28;;;13.43;;
33150;SDS011;19508;42.578;23.416;2022-12-11T01:39:23;49.10;;;22.88;;
33150;SDS011;19508;42.578;23.416;2022-12-11T01:41:48;42.05;;;16.88;;
33150;SDS011;19508;42.578;23.416;2022-12-11T01:46:39;32.00;;;14.32;;
33150;SDS011;19508;42.578;23.416;2022-12-11T01:49:06;49.13;;;20.17;;
33150;SDS011;19508;42.578;23.416;2022-12-11T01:51:36;42.58;;;17.13;;
33150;SDS011;19508;42.578;23.416;2022-12-11T01:54:09;43.78;;;17.50;;
33150;SDS011;19508;42.578;23.416;2022-12-11T01:56:37;17.30;;;7.68;;
33150;SDS011;19508;42.578;23.416;2022-12-11T01:59:06;7.93;;;3.75;;
33150;SDS011;19508;42.578;23.416;2022-12-11T02:04:05;0.98;;;0.60;;
33150;SDS011;19508;42.578;23.416;2022-12-11T02:09:00;0.50;;;0.30;;
33150;SDS011;19508;42.578;23.416;2022-12-11T02:11:34;1.55;;;0.63;;
33150;SDS011;19508;42.578;23.416;2022-12-11T02:14:19;2.00;;;0.50;;
33150;SDS011;19508;42.578;23.416;2022-12-11T02:17:11;0.40;;;0.30;;
33150;SDS011;19508;42.578;23.416;2022-12-11T02:25:15;6.05;;;0.60;;
33150;SDS011;19508;42.578;23.416;2022-12-11T02:27:51;0.75;;;0.50;;
33150;SDS011;19508;42.578;23.416;2022-12-11T02:30:26;1.55;;;0.60;;
33150;SDS011;19508;42.578;23.416;2022-12-11T02:32:55;0.77;;;0.50;;
33150;SDS011;19508;42.578;23.416;2022-12-11T02:35:30;3.33;;;0.47;;
33150;SDS011;19508;42.578;23.416;2022-12-11T02:38:04;2.67;;;0.68;;
33150;SDS011;19508;42.578;23.416;2022-12-11T02:40:39;1.75;;;0.60;;
33150;SDS011;19508;42.578;23.416;2022-12-11T02:43:09;1.85;;;0.43;;
33150;SDS011;19508;42.578;23.416;2022-12-11T02:45:38;2.92;;;0.63;;
33150;SDS011;19508;42.578;23.416;2022-12-11T02:48:05;1.08;;;0.68;;
33150;SDS011;19508;42.578;23.416;2022-12-11T02:50:35;3.53;;;1.38;;
33150;SDS011;19508;42.578;23.416;2022-12-11T02:53:04;1.25;;;0.47;;
33150;SDS011;19508;42.578;23.416;2022-12-11T02:55:31;3.15;;;0.55;;
33150;SDS011;19508;42.578;23.416;2022-12-11T03:00:47;1.27;;;0.65;;
33150;SDS011;19508;42.578;23.416;2022-12-11T03:03:13;1.38;;;0.85;;
33150;SDS011;19508;42.578;23.416;2022-12-11T03:05:38;4.10;;;0.63;;
33150;SDS011;19508;42.578;23.416;2022-12-11T03:08:06;2.67;;;1.30;;
33150;SDS011;19508;42.578;23.416;2022-12-11T03:10:31;1.83;;;1.20;;
33150;SDS011;19508;42.578;23.416;2022-12-11T03:12:57;1.27;;;0.52;;
33150;SDS011;19508;42.578;23.416;2022-12-11T03:21:07;3.10;;;0.80;;
33150;SDS011;19508;42.578;23.416;2022-12-11T03:26:40;3.67;;;0.90;;
33150;SDS011;19508;42.578;23.416;2022-12-11T03:29:15;3.92;;;1.20;;
33150;SDS011;19508;42.578;23.416;2022-12-11T03:31:55;2.72;;;1.00;;
33150;SDS011;19508;42.578;23.416;2022-12-11T03:34:30;1.58;;;0.90;;
33150;SDS011;19508;42.578;23.416;2022-12-11T03:37:01;1.90;;;0.88;;
33150;SDS011;19508;42.578;23.416;2022-12-11T03:39:40;2.88;;;1.10;;
33150;SDS011;19508;42.578;23.416;2022-12-11T03:42:11;1.77;;;0.77;;
33150;SDS011;19508;42.578;23.416;2022-12-11T03:44:39;4.28;;;0.90;;
33150;SDS011;19508;42.578;23.416;2022-12-11T03:47:07;4.20;;;0.95;;
33150;SDS011;19508;42.578;23.416;2022-12-11T03:49:34;5.40;;;2.78;;
33150;SDS011;19508;42.578;23.416;2022-12-11T03:52:04;2.50;;;0.98;;
33150;SDS011;19508;42.578;23.416;2022-12-11T03:54:31;1.48;;;0.80;;
33150;SDS011;19508;42.578;23.416;2022-12-11T03:56:58;2.60;;;1.00;;
33150;SDS011;19508;42.578;23.416;2022-12-11T03:59:26;3.00;;;0.95;;
33150;SDS011;19508;42.578;23.416;2022-12-11T04:01:52;5.15;;;1.05;;
33150;SDS011;19508;42.578;23.416;2022-12-11T04:04:18;3.50;;;1.00;;
33150;SDS011;19508;42.578;23.416;2022-12-11T04:06:43;4.05;;;1.27;;
33150;SDS011;19508;42.578;23.416;2022-12-11T04:09:09;5.32;;;1.10;;
33150;SDS011;19508;42.578;23.416;2022-12-11T04:11:35;3.28;;;1.23;;
33150;SDS011;19508;42.578;23.416;2022-12-11T04:14:01;5.40;;;1.05;;
33150;SDS011;19508;42.578;23.416;2022-12-11T04:16:50;3.30;;;0.85;;
33150;SDS011;19508;42.578;23.416;2022-12-11T04:19:16;3.92;;;1.00;;
33150;SDS011;19508;42.578;23.416;2022-12-11T04:22:01;4.93;;;1.00;;
33150;SDS011;19508;42.578;23.416;2022-12-11T04:24:38;3.90;;;0.80;;
33150;SDS011;19508;42.578;23.416;2022-12-11T04:27:04;3.88;;;0.85;;
33150;SDS011;19508;42.578;23.416;2022-12-11T04:29:29;7.18;;;1.05;;
33150;SDS011;19508;42.578;23.416;2022-12-11T04:31:55;3.90;;;1.08;;
33150;SDS011;19508;42.578;23.416;2022-12-11T04:34:20;2.08;;;0.90;;
33150;SDS011;19508;42.578;23.416;2022-12-11T04:36:46;3.20;;;0.63;;
33150;SDS011;19508;42.578;23.416;2022-12-11T04:39:26;1.70;;;0.73;;
33150;SDS011;19508;42.578;23.416;2022-12-11T04:41:51;4.55;;;0.93;;
33150;SDS011;19508;42.578;23.416;2022-12-11T04:44:16;1.05;;;0.77;;
33150;SDS011;19508;42.578;23.416;2022-12-11T04:46:42;1.60;;;0.50;;
33150;SDS011;19508;42.578;23.416;2022-12-11T04:49:08;3.85;;;1.00;;
33150;SDS011;19508;42.578;23.416;2022-12-11T04:51:34;3.83;;;1.02;;
33150;SDS011;19508;42.578;23.416;2022-12-11T04:53:59;2.50;;;0.68;;
33150;SDS011;19508;42.578;23.416;2022-12-11T04:56:24;7.07;;;1.75;;
33150;SDS011;19508;42.578;23.416;2022-12-11T04:58:50;2.08;;;0.70;;
33150;SDS011;19508;42.578;23.416;2022-12-11T05:01:16;3.15;;;1.08;;
33150;SDS011;19508;42.578;23.416;2022-12-11T05:03:43;3.20;;;0.98;;
33150;SDS011;19508;42.578;23.416;2022-12-11T05:06:10;2.95;;;1.33;;
33150;SDS011;19508;42.578;23.416;2022-12-11T05:08:37;4.63;;;0.73;;
33150;SDS011;19508;42.578;23.416;2022-12-11T05:11:05;3.20;;;0.95;;
33150;SDS011;19508;42.578;23.416;2022-12-11T05:13:32;3.17;;;1.08;;
33150;SDS011;19508;42.578;23.416;2022-12-11T05:15:58;1.02;;;0.60;;
33150;SDS011;19508;42.578;23.416;2022-12-11T05:18:24;5.72;;;1.13;;
33150;SDS011;19508;42.578;23.416;2022-12-11T05:20:53;3.05;;;1.02;;
33150;SDS011;19508;42.578;23.416;2022-12-11T05:23:20;1.70;;;0.77;;
33150;SDS011;19508;42.578;23.416;2022-12-11T05:25:53;2.33;;;0.90;;
33150;SDS011;19508;42.578;23.416;2022-12-11T05:28:26;2.97;;;0.93;;
33150;SDS011;19508;42.578;23.416;2022-12-11T05:30:54;4.57;;;0.80;;
33150;SDS011;19508;42.578;23.416;2022-12-11T05:33:23;2.70;;;0.70;;
33150;SDS011;19508;42.578;23.416;2022-12-11T05:35:49;2.35;;;0.95;;
33150;SDS011;19508;42.578;23.416;2022-12-11T05:38:15;6.30;;;1.23;;
33150;SDS011;19508;42.578;23.416;2022-12-11T05:40:40;4.78;;;1.08;;
33150;SDS011;19508;42.578;23.416;2022-12-11T05:43:06;5.43;;;0.90;;
33150;SDS011;19508;42.578;23.416;2022-12-11T05:45:32;3.38;;;1.02;;
33150;SDS011;19508;42.578;23.416;2022-12-11T05:47:57;3.20;;;0.88;;
33150;SDS011;19508;42.578;23.416;2022-12-11T05:50:23;3.80;;;0.93;;
33150;SDS011;19508;42.578;23.416;2022-12-11T05:52:48;5.18;;;0.70;;
33150;SDS011;19508;42.578;23.416;2022-12-11T05:55:14;7.47;;;3.05;;
33150;SDS011;19508;42.578;23.416;2022-12-11T05:57:39;4.05;;;0.90;;
33150;SDS011;19508;42.578;23.416;2022-12-11T06:00:05;2.40;;;1.00;;
33150;SDS011;19508;42.578;23.416;2022-12-11T06:02:33;4.32;;;1.10;;
33150;SDS011;19508;42.578;23.416;2022-12-11T06:04:59;4.45;;;1.08;;
33150;SDS011;19508;42.578;23.416;2022-12-11T06:07:24;6.22;;;1.00;;
33150;SDS011;19508;42.578;23.416;2022-12-11T06:09:50;5.13;;;1.33;;
33150;SDS011;19508;42.578;23.416;2022-12-11T06:12:15;4.60;;;1.05;;
33150;SDS011;19508;42.578;23.416;2022-12-11T06:14:41;5.90;;;1.60;;
33150;SDS011;19508;42.578;23.416;2022-12-11T06:17:06;3.58;;;1.85;;
33150;SDS011;19508;42.578;23.416;2022-12-11T06:19:31;11.27;;;2.08;;
33150;SDS011;19508;42.578;23.416;2022-12-11T06:21:57;6.32;;;2.30;;
33150;SDS011;19508;42.578;23.416;2022-12-11T06:24:22;4.47;;;2.40;;
33150;SDS011;19508;42.578;23.416;2022-12-11T06:26:48;3.67;;;1.77;;
33150;SDS011;19508;42.578;23.416;2022-12-11T06:29:13;19.92;;;7.28;;
33150;SDS011;19508;42.578;23.416;2022-12-11T06:31:39;9.27;;;3.67;;
33150;SDS011;19508;42.578;23.416;2022-12-11T06:34:04;7.28;;;1.92;;
33150;SDS011;19508;42.578;23.416;2022-12-11T06:36:30;4.45;;;1.48;;
33150;SDS011;19508;42.578;23.416;2022-12-11T06:38:55;6.65;;;2.45;;
33150;SDS011;19508;42.578;23.416;2022-12-11T06:41:20;6.68;;;1.80;;
33150;SDS011;19508;42.578;23.416;2022-12-11T06:43:46;7.10;;;2.50;;
33150;SDS011;19508;42.578;23.416;2022-12-11T06:46:13;9.82;;;2.75;;
33150;SDS011;19508;42.578;23.416;2022-12-11T06:48:40;16.38;;;3.30;;
33150;SDS011;19508;42.578;23.416;2022-12-11T06:51:07;6.10;;;2.53;;
33150;SDS011;19508;42.578;23.416;2022-12-11T06:53:35;13.55;;;4.45;;
33150;SDS011;19508;42.578;23.416;2022-12-11T06:56:02;3.50;;;1.42;;
33150;SDS011;19508;42.578;23.416;2022-12-11T06:58:35;6.78;;;1.60;;
33150;SDS011;19508;42.578;23.416;2022-12-11T07:01:02;2.35;;;1.23;;
33150;SDS011;19508;42.578;23.416;2022-12-11T07:03:28;7.50;;;3.05;;
33150;SDS011;19508;42.578;23.416;2022-12-11T07:05:58;7.45;;;2.88;;
33150;SDS011;19508;42.578;23.416;2022-12-11T07:08:27;5.60;;;1.70;;
33150;SDS011;19508;42.578;23.416;2022-12-11T07:10:53;5.25;;;2.35;;
33150;SDS011;19508;42.578;23.416;2022-12-11T07:13:18;4.28;;;2.00;;
33150;SDS011;19508;42.578;23.416;2022-12-11T07:15:44;2.70;;;1.10;;
33150;SDS011;19508;42.578;23.416;2022-12-11T07:18:09;3.58;;;1.13;;
33150;SDS011;19508;42.578;23.416;2022-12-11T07:20:34;16.15;;;5.43;;
33150;SDS011;19508;42.578;23.416;2022-12-11T07:23:00;23.45;;;7.70;;
33150;SDS011;19508;42.578;23.416;2022-12-11T07:25:25;4.15;;;1.83;;
33150;SDS011;19508;42.578;23.416;2022-12-11T07:27:51;7.25;;;3.35;;
33150;SDS011;19508;42.578;23.416;2022-12-11T07:30:16;14.35;;;4.60;;
33150;SDS011;19508;42.578;23.416;2022-12-11T07:32:41;20.80;;;6.97;;
33150;SDS011;19508;42.578;23.416;2022-12-11T07:35:07;10.85;;;2.38;;
33150;SDS011;19508;42.578;23.416;2022-12-11T07:37:33;3.42;;;1.10;;
33150;SDS011;19508;42.578;23.416;2022-12-11T07:39:58;21.42;;;6.90;;
33150;SDS011;19508;42.578;23.416;2022-12-11T07:42:24;16.25;;;3.33;;
33150;SDS011;19508;42.578;23.416;2022-12-11T07:44:49;4.88;;;1.38;;
33150;SDS011;19508;42.578;23.416;2022-12-11T07:47:14;8.90;;;1.40;;
33150;SDS011;19508;42.578;23.416;2022-12-11T07:49:40;3.80;;;1.20;;
33150;SDS011;19508;42.578;23.416;2022-12-11T07:52:05;7.75;;;1.30;;
33150;SDS011;19508;42.578;23.416;2022-12-11T07:54:31;9.70;;;1.98;;
33150;SDS011;19508;42.578;23.416;2022-12-11T07:56:56;12.15;;;3.40;;
33150;SDS011;19508;42.578;23.416;2022-12-11T07:59:21;6.57;;;2.20;;
33150;SDS011;19508;42.578;23.416;2022-12-11T08:01:47;4.10;;;1.75;;
33150;SDS011;19508;42.578;23.416;2022-12-11T08:04:12;12.95;;;5.57;;
33150;SDS011;19508;42.578;23.416;2022-12-11T08:06:40;5.40;;;3.38;;
33150;SDS011;19508;42.578;23.416;2022-12-11T08:09:09;12.43;;;4.72;;
33150;SDS011;19508;42.578;23.416;2022-12-11T08:11:36;13.77;;;5.22;;
33150;SDS011;19508;42.578;23.416;2022-12-11T08:14:02;16.08;;;7.50;;
33150;SDS011;19508;42.578;23.416;2022-12-11T08:16:29;33.90;;;12.85;;
33150;SDS011;19508;42.578;23.416;2022-12-11T08:18:56;8.35;;;2.78;;
33150;SDS011;19508;42.578;23.416;2022-12-11T08:21:23;18.73;;;5.57;;
33150;SDS011;19508;42.578;23.416;2022-12-11T08:23:50;6.97;;;3.00;;
33150;SDS011;19508;42.578;23.416;2022-12-11T08:26:26;9.95;;;1.65;;
33150;SDS011;19508;42.578;23.416;2022-12-11T08:28:54;9.82;;;3.30;;
33150;SDS011;19508;42.578;23.416;2022-12-11T08:31:20;35.22;;;14.25;;
33150;SDS011;19508;42.578;23.416;2022-12-11T08:33:46;6.20;;;2.25;;
33150;SDS011;19508;42.578;23.416;2022-12-11T08:36:14;9.20;;;1.17;;
33150;SDS011;19508;42.578;23.416;2022-12-11T08:38:42;7.20;;;1.38;;
33150;SDS011;19508;42.578;23.416;2022-12-11T08:43:37;4.93;;;1.40;;
33150;SDS011;19508;42.578;23.416;2022-12-11T08:46:03;3.97;;;1.00;;
33150;SDS011;19508;42.578;23.416;2022-12-11T08:48:29;3.95;;;1.98;;
33150;SDS011;19508;42.578;23.416;2022-12-11T08:50:57;7.15;;;2.10;;
33150;SDS011;19508;42.578;23.416;2022-12-11T08:53:28;3.50;;;1.38;;
33150;SDS011;19508;42.578;23.416;2022-12-11T08:55:58;4.10;;;0.77;;
33150;SDS011;19508;42.578;23.416;2022-12-11T08:58:28;4.07;;;0.93;;
33150;SDS011;19508;42.578;23.416;2022-12-11T09:00:53;6.47;;;2.03;;
33150;SDS011;19508;42.578;23.416;2022-12-11T09:03:19;6.22;;;2.33;;
33150;SDS011;19508;42.578;23.416;2022-12-11T09:05:45;4.07;;;1.42;;
33150;SDS011;19508;42.578;23.416;2022-12-11T09:08:10;13.63;;;3.42;;
33150;SDS011;19508;42.578;23.416;2022-12-11T09:10:36;4.13;;;1.30;;
33150;SDS011;19508;42.578;23.416;2022-12-11T09:13:01;5.10;;;0.95;;
33150;SDS011;19508;42.578;23.416;2022-12-11T09:15:26;4.32;;;0.93;;
33150;SDS011;19508;42.578;23.416;2022-12-11T09:17:52;7.35;;;2.53;;
33150;SDS011;19508;42.578;23.416;2022-12-11T09:20:17;2.90;;;1.15;;
33150;SDS011;19508;42.578;23.416;2022-12-11T09:22:43;6.90;;;1.35;;
33150;SDS011;19508;42.578;23.416;2022-12-11T09:25:08;8.63;;;3.50;;
33150;SDS011;19508;42.578;23.416;2022-12-11T09:27:34;4.10;;;2.50;;
33150;SDS011;19508;42.578;23.416;2022-12-11T09:29:59;5.25;;;2.45;;
33150;SDS011;19508;42.578;23.416;2022-12-11T09:32:25;5.07;;;1.77;;
33150;SDS011;19508;42.578;23.416;2022-12-11T09:34:50;2.22;;;1.13;;
33150;SDS011;19508;42.578;23.416;2022-12-11T09:37:16;11.90;;;2.47;;
33150;SDS011;19508;42.578;23.416;2022-12-11T09:39:41;2.03;;;0.98;;
33150;SDS011;19508;42.578;23.416;2022-12-11T09:42:13;4.50;;;1.50;;
33150;SDS011;19508;42.578;23.416;2022-12-11T09:44:46;7.80;;;2.15;;
33150;SDS011;19508;42.578;23.416;2022-12-11T09:52:35;4.82;;;1.10;;
33150;SDS011;19508;42.578;23.416;2022-12-11T09:55:21;3.25;;;1.17;;
33150;SDS011;19508;42.578;23.416;2022-12-11T10:06:08;3.88;;;1.45;;
33150;SDS011;19508;42.578;23.416;2022-12-11T10:16:37;7.28;;;2.78;;
33150;SDS011;19508;42.578;23.416;2022-12-11T10:19:16;6.25;;;0.95;;
33150;SDS011;19508;42.578;23.416;2022-12-11T10:21:48;7.32;;;1.45;;
33150;SDS011;19508;42.578;23.416;2022-12-11T10:24:21;15.13;;;1.50;;
33150;SDS011;19508;42.578;23.416;2022-12-11T10:26:57;7.77;;;2.47;;
33150;SDS011;19508;42.578;23.416;2022-12-11T10:29:26;6.15;;;1.52;;
33150;SDS011;19508;42.578;23.416;2022-12-11T10:31:54;10.25;;;2.40;;
33150;SDS011;19508;42.578;23.416;2022-12-11T10:37:06;5.65;;;1.92;;
33150;SDS011;19508;42.578;23.416;2022-12-11T10:39:31;3.42;;;1.35;;
33150;SDS011;19508;42.578;23.416;2022-12-11T10:41:57;41.55;;;14.30;;
33150;SDS011;19508;42.578;23.416;2022-12-11T10:44:26;5.07;;;1.85;;
33150;SDS011;19508;42.578;23.416;2022-12-11T10:47:04;2.50;;;1.60;;
33150;SDS011;19508;42.578;23.416;2022-12-11T10:49:34;13.60;;;5.07;;
33150;SDS011;19508;42.578;23.416;2022-12-11T10:52:00;7.45;;;1.30;;
33150;SDS011;19508;42.578;23.416;2022-12-11T10:54:40;6.32;;;1.00;;
33150;SDS011;19508;42.578;23.416;2022-12-11T10:57:08;2.65;;;1.48;;
33150;SDS011;19508;42.578;23.416;2022-12-11T10:59:48;6.10;;;1.40;;
33150;SDS011;19508;42.578;23.416;2022-12-11T11:02:47;5.80;;;1.77;;
33150;SDS011;19508;42.578;23.416;2022-12-11T11:05:13;4.78;;;1.75;;
33150;SDS011;19508;42.578;23.416;2022-12-11T11:10:58;3.97;;;1.23;;
33150;SDS011;19508;42.578;23.416;2022-12-11T11:13:29;3.38;;;1.20;;
33150;SDS011;19508;42.578;23.416;2022-12-11T11:16:03;15.23;;;4.30;;
33150;SDS011;19508;42.578;23.416;2022-12-11T11:18:31;7.72;;;3.20;;
33150;SDS011;19508;42.578;23.416;2022-12-11T11:20:58;5.80;;;1.60;;
33150;SDS011;19508;42.578;23.416;2022-12-11T11:23:25;13.93;;;4.65;;
33150;SDS011;19508;42.578;23.416;2022-12-11T11:25:52;12.43;;;4.00;;
33150;SDS011;19508;42.578;23.416;2022-12-11T11:28:37;9.60;;;3.10;;
33150;SDS011;19508;42.578;23.416;2022-12-11T11:31:10;4.55;;;2.70;;
33150;SDS011;19508;42.578;23.416;2022-12-11T11:36:31;1.48;;;0.88;;
33150;SDS011;19508;42.578;23.416;2022-12-11T11:41:42;46.80;;;20.77;;
33150;SDS011;19508;42.578;23.416;2022-12-11T11:44:10;65.20;;;31.08;;
33150;SDS011;19508;42.578;23.416;2022-12-11T11:46:43;18.50;;;6.43;;
33150;SDS011;19508;42.578;23.416;2022-12-11T11:57:00;10.52;;;1.35;;
33150;SDS011;19508;42.578;23.416;2022-12-11T11:59:40;8.15;;;1.85;;
33150;SDS011;19508;42.578;23.416;2022-12-11T12:02:15;7.57;;;1.55;;
33150;SDS011;19508;42.578;23.416;2022-12-11T12:04:42;2.38;;;1.55;;
33150;SDS011;19508;42.578;23.416;2022-12-11T12:12:40;12.05;;;4.30;;
33150;SDS011;19508;42.578;23.416;2022-12-11T12:23:48;13.77;;;2.72;;
33150;SDS011;19508;42.578;23.416;2022-12-11T12:26:22;7.78;;;2.28;;
33150;SDS011;19508;42.578;23.416;2022-12-11T12:31:58;7.28;;;2.45;;
33150;SDS011;19508;42.578;23.416;2022-12-11T12:34:55;4.13;;;1.55;;
33150;SDS011;19508;42.578;23.416;2022-12-11T12:40:25;40.97;;;11.23;;
33150;SDS011;19508;42.578;23.416;2022-12-11T12:48:46;15.18;;;4.65;;
33150;SDS011;19508;42.578;23.416;2022-12-11T12:51:12;17.33;;;6.50;;
33150;SDS011;19508;42.578;23.416;2022-12-11T12:53:40;3.75;;;1.48;;
33150;SDS011;19508;42.578;23.416;2022-12-11T12:56:13;3.95;;;1.10;;
33150;SDS011;19508;42.578;23.416;2022-12-11T12:58:41;21.67;;;7.05;;
33150;SDS011;19508;42.578;23.416;2022-12-11T13:08:57;5.97;;;2.88;;
33150;SDS011;19508;42.578;23.416;2022-12-11T13:11:34;7.43;;;3.45;;
33150;SDS011;19508;42.578;23.416;2022-12-11T13:14:04;6.85;;;3.63;;
33150;SDS011;19508;42.578;23.416;2022-12-11T13:16:43;7.43;;;3.63;;
33150;SDS011;19508;42.578;23.416;2022-12-11T13:19:17;9.35;;;3.75;;
33150;SDS011;19508;42.578;23.416;2022-12-11T13:24:44;9.82;;;4.30;;
33150;SDS011;19508;42.578;23.416;2022-12-11T13:27:21;6.70;;;4.75;;
33150;SDS011;19508;42.578;23.416;2022-12-11T13:29:49;11.38;;;6.28;;
33150;SDS011;19508;42.578;23.416;2022-12-11T13:34:41;8.10;;;5.25;;
33150;SDS011;19508;42.578;23.416;2022-12-11T13:37:20;7.47;;;4.80;;
33150;SDS011;19508;42.578;23.416;2022-12-11T13:39:48;4.60;;;3.60;;
33150;SDS011;19508;42.578;23.416;2022-12-11T13:42:21;7.43;;;3.75;;
33150;SDS011;19508;42.578;23.416;2022-12-11T13:44:53;7.35;;;3.90;;
33150;SDS011;19508;42.578;23.416;2022-12-11T13:47:18;8.13;;;4.68;;
33150;SDS011;19508;42.578;23.416;2022-12-11T13:49:46;5.40;;;3.47;;
33150;SDS011;19508;42.578;23.416;2022-12-11T13:52:22;7.60;;;4.40;;
33150;SDS011;19508;42.578;23.416;2022-12-11T13:54:53;18.27;;;3.97;;
33150;SDS011;19508;42.578;23.416;2022-12-11T13:59:50;7.32;;;2.85;;
33150;SDS011;19508;42.578;23.416;2022-12-11T14:02:27;14.27;;;6.70;;
33150;SDS011;19508;42.578;23.416;2022-12-11T14:04:58;6.47;;;3.58;;
33150;SDS011;19508;42.578;23.416;2022-12-11T14:07:27;6.07;;;3.45;;
33150;SDS011;19508;42.578;23.416;2022-12-11T14:09:58;5.68;;;3.30;;
33150;SDS011;19508;42.578;23.416;2022-12-11T14:12:29;6.47;;;4.35;;
33150;SDS011;19508;42.578;23.416;2022-12-11T14:14:56;6.53;;;4.32;;
33150;SDS011;19508;42.578;23.416;2022-12-11T14:17:27;7.40;;;4.95;;
33150;SDS011;19508;42.578;23.416;2022-12-11T14:19:56;9.57;;;4.00;;
33150;SDS011;19508;42.578;23.416;2022-12-11T14:22:25;9.52;;;4.93;;
33150;SDS011;19508;42.578;23.416;2022-12-11T14:24:59;12.73;;;5.00;;
33150;SDS011;19508;42.578;23.416;2022-12-11T14:27:27;15.73;;;6.10;;
33150;SDS011;19508;42.578;23.416;2022-12-11T14:29:53;10.15;;;5.22;;
33150;SDS011;19508;42.578;23.416;2022-12-11T14:32:30;10.32;;;5.97;;
33150;SDS011;19508;42.578;23.416;2022-12-11T14:35:00;5.20;;;3.20;;
33150;SDS011;19508;42.578;23.416;2022-12-11T14:37:29;6.57;;;3.53;;
33150;SDS011;19508;42.578;23.416;2022-12-11T14:40:03;5.88;;;3.38;;
33150;SDS011;19508;42.578;23.416;2022-12-11T14:42:34;6.30;;;3.35;;
33150;SDS011;19508;42.578;23.416;2022-12-11T14:45:06;7.60;;;3.25;;
33150;SDS011;19508;42.578;23.416;2022-12-11T14:47:40;5.60;;;2.78;;
33150;SDS011;19508;42.578;23.416;2022-12-11T14:50:10;13.45;;;5.95;;
33150;SDS011;19508;42.578;23.416;2022-12-11T14:52:43;3.38;;;2.47;;
33150;SDS011;19508;42.578;23.416;2022-12-11T14:55:19;7.72;;;2.35;;
33150;SDS011;19508;42.578;23.416;2022-12-11T14:57:59;31.50;;;11.75;;
33150;SDS011;19508;42.578;23.416;2022-12-11T15:00:30;2.45;;;1.63;;
33150;SDS011;19508;42.578;23.416;2022-12-11T15:05:27;16.58;;;3.80;;
33150;SDS011;19508;42.578;23.416;2022-12-11T15:11:28;3.20;;;2.30;;
33150;SDS011;19508;42.578;23.416;2022-12-11T15:13:21;6.97;;;3.17;;
33150;SDS011;19508;42.578;23.416;2022-12-11T15:15:48;4.60;;;2.67;;
33150;SDS011;19508;42.578;23.416;2022-12-11T15:21:02;9.48;;;5.18;;
33150;SDS011;19508;42.578;23.416;2022-12-11T15:23:31;6.97;;;3.28;;
33150;SDS011;19508;42.578;23.416;2022-12-11T15:26:02;7.30;;;4.13;;
33150;SDS011;19508;42.578;23.416;2022-12-11T15:28:32;25.83;;;11.35;;
33150;SDS011;19508;42.578;23.416;2022-12-11T15:31:06;7.53;;;4.40;;
33150;SDS011;19508;42.578;23.416;2022-12-11T15:33:53;7.40;;;3.95;;
33150;SDS011;19508;42.578;23.416;2022-12-11T15:36:23;4.43;;;2.78;;
33150;SDS011;19508;42.578;23.416;2022-12-11T15:38:48;6.72;;;3.10;;
33150;SDS011;19508;42.578;23.416;2022-12-11T15:41:15;7.53;;;4.22;;
33150;SDS011;19508;42.578;23.416;2022-12-11T15:43:44;17.40;;;5.97;;
33150;SDS011;19508;42.578;23.416;2022-12-11T15:46:11;19.35;;;5.70;;
33150;SDS011;19508;42.578;23.416;2022-12-11T15:48:37;9.25;;;2.88;;
33150;SDS011;19508;42.578;23.416;2022-12-11T15:51:03;20.52;;;3.70;;
33150;SDS011;19508;42.578;23.416;2022-12-11T15:53:28;7.65;;;2.95;;
33150;SDS011;19508;42.578;23.416;2022-12-11T15:55:54;4.28;;;2.92;;
33150;SDS011;19508;42.578;23.416;2022-12-11T15:58:21;4.55;;;2.95;;
33150;SDS011;19508;42.578;23.416;2022-12-11T16:00:48;4.80;;;3.00;;
33150;SDS011;19508;42.578;23.416;2022-12-11T16:03:15;4.93;;;2.90;;
33150;SDS011;19508;42.578;23.416;2022-12-11T16:05:42;6.43;;;3.30;;
33150;SDS011;19508;42.578;23.416;2022-12-11T16:08:11;14.07;;;6.00;;
33150;SDS011;19508;42.578;23.416;2022-12-11T16:10:39;8.30;;;4.28;;
33150;SDS011;19508;42.578;23.416;2022-12-11T16:13:08;8.18;;;5.00;;
33150;SDS011;19508;42.578;23.416;2022-12-11T16:15:35;8.30;;;3.60;;
33150;SDS011;19508;42.578;23.416;2022-12-11T16:18:10;8.25;;;3.40;;
33150;SDS011;19508;42.578;23.416;2022-12-11T16:20:38;7.83;;;4.27;;
33150;SDS011;19508;42.578;23.416;2022-12-11T16:23:04;9.43;;;5.10;;
33150;SDS011;19508;42.578;23.416;2022-12-11T16:25:31;9.98;;;5.25;;
33150;SDS011;19508;42.578;23.416;2022-12-11T16:27:58;12.20;;;5.20;;
33150;SDS011;19508;42.578;23.416;2022-12-11T16:30:25;7.50;;;3.53;;
33150;SDS011;19508;42.578;23.416;2022-12-11T16:32:52;6.95;;;4.13;;
33150;SDS011;19508;42.578;23.416;2022-12-11T16:35:18;9.40;;;4.95;;
33150;SDS011;19508;42.578;23.416;2022-12-11T16:37:44;19.55;;;10.77;;